Time;durP1;ratioP1;P1;durP2;ratioP2;P2;SDS_P1;SDS_P2;PMS_P1;PMS_P2;Temp;Humidity;BMP_temperature;BMP_pressure;BME280_temperature;BME280_humidity;BME280_pressure;Samples;Min_cycle;Max_cycle;Signal;HPM_P1;HPM_P2
2022/02/19 00:02:22;;;;;;;45.10;4.18;;;;;;;5.15;66.98;100233.47;5041362;28;20033;-50
2022/02/19 00:04:47;;;;;;;33.38;3.95;;;;;;;5.14;67.36;100221.16;5031842;28;20030;-48
2022/02/19 00:07:12;;;;;;;35.85;3.63;;;;;;;5.11;66.24;100226.81;5031762;28;20110;-48
2022/02/19 00:09:38;;;;;;;28.10;2.55;;;;;;;5.11;65.52;100241.94;5031705;28;20026;-49
2022/02/19 00:12:04;;;;;;;27.95;2.97;;;;;;;5.11;65.71;100250.81;5037791;28;20392;-48
2022/02/19 00:14:30;;;;;;;24.50;2.63;;;;;;;5.11;66.20;100263.28;5051840;28;20033;-48
2022/02/19 00:16:55;;;;;;;22.90;2.63;;;;;;;5.18;66.46;100242.97;5051644;28;20491;-50
2022/02/19 00:19:20;;;;;;;21.55;3.25;;;;;;;5.20;67.09;100295.19;5034047;28;20111;-48
2022/02/19 00:21:46;;;;;;;38.10;3.70;;;;;;;5.20;66.40;100279.19;5044306;28;20108;-50
2022/02/19 00:24:11;;;;;;;33.03;3.05;;;;;;;5.23;66.00;100296.69;5043899;28;20044;-48
2022/02/19 00:26:37;;;;;;;32.10;3.40;;;;;;;5.27;66.74;100303.41;5035042;28;20065;-48
2022/02/19 00:29:03;;;;;;;26.23;4.60;;;;;;;5.26;65.45;100307.03;5047585;28;20022;-48
2022/02/19 00:31:28;;;;;;;19.67;2.17;;;;;;;5.23;64.77;100308.19;5032238;28;20056;-49
2022/02/19 00:33:53;;;;;;;33.35;3.88;;;;;;;5.25;65.16;100314.22;5039729;28;20036;-48
2022/02/19 00:36:19;;;;;;;21.33;2.70;;;;;;;5.26;64.46;100323.03;5050838;28;20063;-48
2022/02/19 00:38:45;;;;;;;22.10;3.10;;;;;;;5.25;65.21;100332.06;5051030;28;20041;-49
2022/02/19 00:41:10;;;;;;;27.02;3.83;;;;;;;5.22;64.45;100303.03;5033575;28;20611;-49
2022/02/19 00:43:35;;;;;;;22.13;2.42;;;;;;;5.21;63.45;100336.88;5049087;28;20029;-48
2022/02/19 00:46:01;;;;;;;20.60;2.08;;;;;;;5.13;62.95;100330.66;5050802;28;20028;-48
2022/02/19 00:48:26;;;;;;;23.00;3.85;;;;;;;5.12;63.30;100334.34;5044266;28;20041;-48
2022/02/19 00:50:51;;;;;;;25.88;2.65;;;;;;;5.06;64.38;100347.31;5035193;28;20029;-49
2022/02/19 00:53:17;;;;;;;29.88;2.97;;;;;;;5.07;65.00;100358.81;5041784;28;20043;-50
2022/02/19 00:55:42;;;;;;;22.63;2.40;;;;;;;5.10;64.82;100360.31;5045853;28;20034;-51
2022/02/19 00:58:08;;;;;;;23.88;3.30;;;;;;;5.10;65.22;100353.16;5043070;28;20079;-49
2022/02/19 01:00:33;;;;;;;25.98;2.60;;;;;;;5.12;66.20;100371.69;5039407;28;20021;-49
2022/02/19 01:02:59;;;;;;;21.73;2.53;;;;;;;5.17;65.80;100375.53;5035296;28;20113;-48
2022/02/19 01:05:24;;;;;;;28.88;2.70;;;;;;;5.21;65.69;100386.72;5040651;28;20041;-50
2022/02/19 01:07:50;;;;;;;21.35;2.72;;;;;;;5.24;65.18;100386.44;5047205;28;20021;-51
2022/02/19 01:10:15;;;;;;;22.63;2.85;;;;;;;5.22;65.11;100389.25;5039734;28;20041;-49
2022/02/19 01:12:40;;;;;;;23.70;2.33;;;;;;;5.25;64.65;100417.44;5040102;28;20025;-48
2022/02/19 01:15:06;;;;;;;31.58;2.60;;;;;;;5.27;65.17;100418.13;5029746;28;20095;-49
2022/02/19 01:17:32;;;;;;;27.52;3.50;;;;;;;5.27;66.00;100429.63;5028427;28;20042;-48
2022/02/19 01:19:57;;;;;;;33.33;3.17;;;;;;;5.27;66.56;100428.78;5017925;28;20384;-50
2022/02/19 01:22:23;;;;;;;31.65;3.38;;;;;;;5.30;66.08;100412.47;5033278;28;20036;-51
2022/02/19 01:24:48;;;;;;;22.95;3.45;;;;;;;5.30;65.04;100449.81;5031829;28;20341;-49
2022/02/19 01:27:14;;;;;;;18.65;2.58;;;;;;;5.32;65.05;100458.50;5017019;28;20022;-48
2022/02/19 01:29:40;;;;;;;23.85;2.63;;;;;;;5.31;65.21;100435.47;5032862;28;20032;-48
2022/02/19 01:32:05;;;;;;;32.63;3.70;;;;;;;5.29;65.00;100474.81;5025437;28;20030;-49
2022/02/19 01:34:30;;;;;;;26.65;3.10;;;;;;;5.31;65.34;100453.31;5037525;28;20025;-48
2022/02/19 01:36:56;;;;;;;24.45;3.05;;;;;;;5.30;65.09;100486.34;5033919;28;20033;-48
2022/02/19 01:39:21;;;;;;;23.50;2.70;;;;;;;5.25;64.99;100495.63;5029222;28;20403;-49
2022/02/19 01:41:46;;;;;;;26.48;2.97;;;;;;;5.28;65.73;100486.50;5023404;28;20029;-50
2022/02/19 01:44:13;;;;;;;26.38;3.10;;;;;;;5.30;65.30;100486.34;5031692;28;20130;-51
2022/02/19 01:46:39;;;;;;;22.00;2.95;;;;;;;5.29;64.20;100482.81;5014897;28;20030;-50
2022/02/19 01:49:05;;;;;;;30.65;3.35;;;;;;;5.26;64.97;100497.31;5043757;28;20029;-49
2022/02/19 01:51:32;;;;;;;38.25;2.85;;;;;;;5.26;65.34;100485.81;5044267;28;20059;-50
2022/02/19 01:54:02;;;;;;;33.72;4.18;;;;;;;5.27;65.52;100508.84;5053605;28;20031;-48
2022/02/19 01:56:28;;;;;;;26.63;2.85;;;;;;;5.25;65.43;100510.81;5051792;28;20036;-49
2022/02/19 01:58:54;;;;;;;34.10;3.55;;;;;;;5.25;65.31;100518.81;5049389;28;20034;-49
2022/02/19 02:01:19;;;;;;;28.50;4.07;;;;;;;5.23;65.58;100536.81;5037688;28;20035;-48
2022/02/19 02:03:45;;;;;;;30.95;3.47;;;;;;;5.25;66.17;100527.66;5051000;28;20025;-49
2022/02/19 02:06:10;;;;;;;30.70;3.17;;;;;;;5.20;66.52;100539.78;5044725;28;20057;-50
2022/02/19 02:08:36;;;;;;;34.10;3.85;;;;;;;5.17;67.16;100537.44;5033916;28;20034;-49
2022/02/19 02:11:02;;;;;;;32.17;3.85;;;;;;;5.13;66.67;100525.38;5032303;28;20026;-51
2022/02/19 02:13:28;;;;;;;31.13;3.10;;;;;;;5.12;66.51;100553.91;5049808;28;20060;-50
2022/02/19 02:15:53;;;;;;;40.83;3.75;;;;;;;5.10;66.83;100549.72;5050745;28;20118;-50
2022/02/19 02:18:18;;;;;;;23.58;3.10;;;;;;;5.05;66.71;100556.34;5046439;28;20128;-49
2022/02/19 02:20:44;;;;;;;36.35;3.47;;;;;;;5.03;66.73;100573.50;5043754;28;20057;-49
2022/02/19 02:23:10;;;;;;;35.22;4.07;;;;;;;5.04;66.54;100562.66;5034170;28;20033;-49
2022/02/19 02:25:35;;;;;;;28.55;3.55;;;;;;;5.09;66.95;100564.88;5035927;28;20036;-48
2022/02/19 02:28:00;;;;;;;26.05;3.15;;;;;;;5.09;66.75;100578.22;5042425;28;20030;-49
2022/02/19 02:30:26;;;;;;;30.30;3.28;;;;;;;5.08;65.94;100573.84;5034359;28;20121;-52
2022/02/19 02:32:51;;;;;;;41.65;4.15;;;;;;;5.07;65.74;100589.03;5047027;28;20351;-49
2022/02/19 02:35:17;;;;;;;33.35;3.08;;;;;;;5.08;65.15;100600.53;5048680;28;20128;-49
2022/02/19 02:37:42;;;;;;;37.78;3.42;;;;;;;5.09;65.47;100559.53;5033088;28;20087;-49
2022/02/19 02:40:09;;;;;;;31.40;3.10;;;;;;;5.07;65.27;100594.38;5038928;28;20033;-51
2022/02/19 02:42:34;;;;;;;28.42;3.78;;;;;;;5.05;64.76;100591.03;5048063;28;20048;-49
2022/02/19 02:45:00;;;;;;;32.15;2.95;;;;;;;5.05;64.56;100607.03;5033386;28;20097;-50
2022/02/19 02:47:25;;;;;;;32.00;3.63;;;;;;;5.05;64.21;100600.84;5040371;28;20048;-51
2022/02/19 02:49:50;;;;;;;30.30;3.63;;;;;;;5.07;64.19;100604.19;5036946;28;20442;-50
2022/02/19 02:52:16;;;;;;;35.78;4.63;;;;;;;5.05;64.31;100638.19;5052955;28;20029;-49
2022/02/19 02:54:41;;;;;;;35.10;3.30;;;;;;;5.03;64.20;100610.84;5036052;28;20029;-48
2022/02/19 02:57:06;;;;;;;21.48;3.13;;;;;;;5.04;64.33;100623.19;5044080;28;20492;-49
2022/02/19 02:59:32;;;;;;;24.35;3.47;;;;;;;5.07;64.84;100626.38;5050875;28;20029;-49
2022/02/19 03:01:57;;;;;;;37.80;3.08;;;;;;;5.12;64.56;100627.75;5052401;28;20052;-51
2022/02/19 03:04:22;;;;;;;37.63;4.40;;;;;;;5.10;64.55;100633.22;5039042;28;20387;-48
2022/02/19 03:06:48;;;;;;;31.75;3.53;;;;;;;5.09;64.04;100617.41;5079688;22;20120;-79
2022/02/19 03:09:13;;;;;;;30.10;3.30;;;;;;;5.01;63.58;100624.31;5027474;28;20054;-79
2022/02/19 03:11:39;;;;;;;25.50;2.67;;;;;;;4.96;64.20;100639.94;5047878;28;20029;-79
2022/02/19 03:14:09;;;;;;;30.20;3.20;;;;;;;4.99;64.42;100650.28;5055561;28;20045;-77
2022/02/19 03:16:34;;;;;;;25.00;3.38;;;;;;;4.97;64.81;100646.94;5032281;28;20041;-78
2022/02/19 03:19:00;;;;;;;30.63;2.70;;;;;;;4.96;64.02;100639.94;5039361;28;20045;-78
2022/02/19 03:21:25;;;;;;;27.88;3.13;;;;;;;4.98;64.34;100674.47;5036918;28;20029;-77
2022/02/19 03:23:52;;;;;;;43.03;3.97;;;;;;;5.00;65.05;100661.78;5036691;28;20033;-78
2022/02/19 03:26:20;;;;;;;28.70;2.33;;;;;;;5.04;64.56;100653.34;5044787;28;20545;-79
2022/02/19 03:28:47;;;;;;;19.17;2.55;;;;;;;5.03;62.36;100673.03;5021592;28;20034;-78
2022/02/19 03:31:13;;;;;;;30.08;2.80;;;;;;;5.06;62.67;100686.06;5032250;28;20500;-78
2022/02/19 03:33:38;;;;;;;22.60;2.45;;;;;;;5.07;62.75;100698.38;5043486;28;20079;-77
2022/02/19 03:36:04;;;;;;;32.50;3.08;;;;;;;5.08;62.90;100696.56;5042225;28;20033;-78
2022/02/19 03:38:29;;;;;;;26.45;2.63;;;;;;;5.13;63.21;100699.63;5043919;28;20044;-79
2022/02/19 03:40:55;;;;;;;37.10;3.40;;;;;;;5.14;63.06;100711.16;5011967;28;20036;-79
2022/02/19 03:43:20;;;;;;;30.38;3.30;;;;;;;5.12;63.37;100697.94;5026065;28;20038;-80
2022/02/19 03:45:45;;;;;;;36.55;4.25;;;;;;;5.13;63.82;100725.47;5043199;28;20029;-79
2022/02/19 03:48:12;;;;;;;26.92;3.65;;;;;;;5.14;63.20;100721.81;5027139;28;20381;-79
2022/02/19 03:50:37;;;;;;;40.15;3.80;;;;;;;5.13;62.39;100720.13;5025253;28;20056;-79
2022/02/19 03:53:03;;;;;;;24.10;2.67;;;;;;;5.15;62.18;100712.81;5025762;28;20026;-79
2022/02/19 03:55:28;;;;;;;26.70;2.65;;;;;;;5.15;63.08;100726.16;5008551;28;20033;-78
2022/02/19 03:57:54;;;;;;;32.92;2.80;;;;;;;5.16;62.46;100719.81;5023224;28;20021;-79
2022/02/19 04:00:19;;;;;;;31.05;3.15;;;;;;;5.19;62.46;100755.06;5041252;28;20059;-80
2022/02/19 04:02:44;;;;;;;23.40;3.00;;;;;;;5.22;62.16;100752.09;5046159;28;20030;-79
2022/02/19 04:05:11;;;;;;;37.75;4.03;;;;;;;5.24;63.06;100763.47;5043874;28;20041;-80
2022/02/19 04:07:37;;;;;;;30.40;3.35;;;;;;;5.25;63.25;100781.13;5007152;28;20176;-80
2022/02/19 04:10:06;;;;;;;22.90;2.72;;;;;;;5.25;63.65;100774.97;5022239;28;20053;-79
2022/02/19 04:12:32;;;;;;;37.13;3.13;;;;;;;5.24;63.85;100770.63;5019921;28;20486;-80
2022/02/19 04:14:57;;;;;;;38.63;2.85;;;;;;;5.28;63.29;100804.03;5021401;28;20080;-78
2022/02/19 04:17:22;;;;;;;24.85;2.80;;;;;;;5.26;62.19;100773.97;5020112;28;20030;-79
2022/02/19 04:19:53;;;;;;;25.88;2.33;;;;;;;5.23;62.45;100798.28;5021153;28;20045;-79
2022/02/19 04:22:22;;;;;;;24.40;3.30;;;;;;;5.22;63.01;100788.63;5022386;28;20350;-78
2022/02/19 04:24:48;;;;;;;33.88;2.90;;;;;;;5.19;63.35;100813.75;5025105;28;20121;-79
2022/02/19 04:27:13;;;;;;;21.83;2.72;;;;;;;5.14;63.23;100807.19;5005950;28;20101;-79
2022/02/19 04:29:39;;;;;;;39.63;3.20;;;;;;;5.11;63.81;100799.47;5028993;28;20029;-78
2022/02/19 04:32:05;;;;;;;27.73;3.78;;;;;;;5.09;63.91;100809.47;5037537;28;20076;-79
2022/02/19 04:34:31;;;;;;;24.05;2.88;;;;;;;4.99;63.56;100810.31;5031739;28;20030;-79
2022/02/19 04:36:56;;;;;;;29.92;3.53;;;;;;;4.96;64.01;100826.63;5021219;28;20049;-79
2022/02/19 04:39:21;;;;;;;34.83;3.42;;;;;;;4.93;64.42;100810.09;5012840;28;20033;-79
2022/02/19 04:41:47;;;;;;;30.33;3.10;;;;;;;4.90;64.94;100827.22;5026650;28;20057;-79
2022/02/19 04:44:12;;;;;;;32.03;2.95;;;;;;;4.91;64.89;100831.56;5025265;28;20033;-79
2022/02/19 04:46:38;;;;;;;26.35;2.78;;;;;;;4.89;65.65;100838.84;5009277;28;20050;-80
2022/02/19 04:49:03;;;;;;;26.38;3.05;;;;;;;4.86;65.03;100840.97;5028953;28;20049;-79
2022/02/19 04:51:28;;;;;;;40.17;3.28;;;;;;;4.84;64.58;100841.13;5012564;28;20029;-79
2022/02/19 04:53:54;;;;;;;26.15;4.70;;;;;;;4.84;65.17;100854.44;5032751;28;20033;-79
2022/02/19 04:56:19;;;;;;;33.88;3.63;;;;;;;4.84;64.45;100857.09;5027455;28;20029;-79
2022/02/19 04:58:46;;;;;;;19.25;2.38;;;;;;;4.82;63.51;100867.94;5013222;28;20330;-79
2022/02/19 05:01:12;;;;;;;38.20;4.57;;;;;;;4.87;64.49;100872.84;5023996;28;20037;-79
2022/02/19 05:03:37;;;;;;;26.73;3.58;;;;;;;4.89;65.47;100862.84;5024364;28;20280;-80
2022/02/19 05:06:03;;;;;;;24.42;3.78;;;;;;;4.92;66.08;100883.91;5026219;28;20034;-78
2022/02/19 05:08:29;;;;;;;18.50;2.72;;;;;;;4.94;64.96;100865.94;5026295;28;20050;-78
2022/02/19 05:10:54;;;;;;;25.42;3.38;;;;;;;4.94;64.83;100865.94;5010506;28;20025;-79
2022/02/19 05:13:20;;;;;;;36.10;3.13;;;;;;;4.98;64.41;100864.66;5027770;28;20393;-80
2022/02/19 05:15:45;;;;;;;35.35;3.33;;;;;;;4.94;64.59;100881.94;5031597;28;20033;-79
2022/02/19 05:18:11;;;;;;;27.17;2.67;;;;;;;4.92;64.53;100883.06;5035370;28;20029;-79
2022/02/19 05:20:38;;;;;;;29.67;2.58;;;;;;;4.91;63.87;100874.22;5037043;28;20038;-80
2022/02/19 05:23:04;;;;;;;22.45;2.50;;;;;;;4.90;64.35;100875.22;5035890;28;20361;-79
2022/02/19 05:25:29;;;;;;;29.65;3.38;;;;;;;4.91;65.31;100878.72;5033248;28;20041;-80
2022/02/19 05:27:54;;;;;;;25.48;3.08;;;;;;;4.83;64.40;100914.09;5022911;28;20477;-80
2022/02/19 05:30:20;;;;;;;24.98;3.13;;;;;;;4.81;64.54;100889.41;5023911;28;20030;-77
2022/02/19 05:32:45;;;;;;;37.33;4.68;;;;;;;4.81;64.94;100900.06;5025378;28;20121;-77
2022/02/19 05:35:11;;;;;;;24.83;2.78;;;;;;;4.78;65.55;100889.69;5023064;28;20493;-79
2022/02/19 05:37:36;;;;;;;35.33;4.40;;;;;;;4.75;65.94;100897.97;5023937;28;20093;-79
2022/02/19 05:40:03;;;;;;;36.67;3.10;;;;;;;4.71;66.05;100901.91;5027190;28;20034;-78
2022/02/19 05:42:28;;;;;;;22.35;2.83;;;;;;;4.71;66.17;100897.41;5027702;28;20030;-78
2022/02/19 05:44:53;;;;;;;19.92;3.08;;;;;;;4.71;66.57;100901.91;5027831;28;20496;-79
2022/02/19 05:47:20;;;;;;;35.13;3.25;;;;;;;4.68;66.53;100916.34;5029991;28;20076;-77
2022/02/19 05:49:49;;;;;;;26.30;3.22;;;;;;;4.70;67.02;100921.56;5026507;28;20026;-78
2022/02/19 05:52:16;;;;;;;26.08;2.95;;;;;;;4.69;67.20;100926.06;5023809;28;20026;-78
2022/02/19 05:54:41;;;;;;;36.05;2.75;;;;;;;4.65;66.95;100915.81;5018382;28;20042;-78
2022/02/19 05:57:07;;;;;;;23.85;2.60;;;;;;;4.67;67.65;100919.19;5006034;28;20034;-78
2022/02/19 05:59:32;;;;;;;33.72;3.13;;;;;;;4.64;67.52;100922.13;5022904;28;20052;-79
2022/02/19 06:01:58;;;;;;;29.88;2.72;;;;;;;4.62;67.32;100914.28;5023847;28;20486;-79
2022/02/19 06:04:23;;;;;;;27.42;2.90;;;;;;;4.65;66.96;100929.13;5023701;28;20091;-80
2022/02/19 06:06:48;;;;;;;29.08;2.55;;;;;;;4.66;66.26;100920.16;5022261;28;20078;-78
2022/02/19 06:09:14;;;;;;;29.10;3.53;;;;;;;4.68;66.86;100928.84;5024878;28;20078;-79
2022/02/19 06:11:41;;;;;;;24.95;2.47;;;;;;;4.70;66.59;100927.72;5005899;28;20019;-79
2022/02/19 06:14:06;;;;;;;30.83;2.90;;;;;;;4.70;65.55;100942.88;5013829;28;20359;-80
2022/02/19 06:16:32;;;;;;;29.17;3.05;;;;;;;4.69;65.48;100925.22;5018376;28;20137;-79
2022/02/19 06:18:57;;;;;;;30.00;3.28;;;;;;;4.72;65.78;100938.25;5000687;28;20489;-79
2022/02/19 06:21:22;;;;;;;27.17;3.85;;;;;;;4.72;65.80;100947.09;5017542;28;20044;-79
2022/02/19 06:23:47;;;;;;;22.65;2.30;;;;;;;4.75;66.10;100948.63;5017280;28;20021;-79
2022/02/19 06:26:13;;;;;;;20.50;2.75;;;;;;;4.77;66.37;100946.69;5001636;28;20064;-79
2022/02/19 06:28:38;;;;;;;20.63;2.30;;;;;;;4.78;66.08;100953.69;5016429;28;20026;-80
2022/02/19 06:31:04;;;;;;;33.38;2.65;;;;;;;4.75;65.70;100948.63;5016311;28;20389;-79
2022/02/19 06:33:29;;;;;;;22.23;2.67;;;;;;;4.76;65.38;100956.47;5019856;28;20026;-80
2022/02/19 06:35:54;;;;;;;26.58;2.83;;;;;;;4.74;65.19;100960.25;5027231;28;20445;-79
2022/02/19 06:38:22;;;;;;;30.45;3.55;;;;;;;4.78;64.59;100964.34;5017365;28;20470;-80
2022/02/19 06:40:47;;;;;;;24.50;3.17;;;;;;;4.78;64.86;100973.19;5019842;28;20035;-80
2022/02/19 06:43:13;;;;;;;27.17;2.50;;;;;;;4.79;65.43;100984.69;5003109;28;20293;-80
2022/02/19 06:45:39;;;;;;;30.42;2.95;;;;;;;4.77;66.16;100982.19;5020685;28;20026;-79
2022/02/19 06:48:04;;;;;;;21.67;2.30;;;;;;;4.79;65.63;100995.34;5018313;28;20033;-79
2022/02/19 06:50:30;;;;;;;21.67;2.47;;;;;;;4.77;65.30;100981.34;5018227;28;20458;-78
2022/02/19 06:52:55;;;;;;;27.05;2.40;;;;;;;4.82;65.76;101001.28;5003788;28;20026;-77
2022/02/19 06:55:21;;;;;;;22.58;2.55;;;;;;;4.83;65.63;101002.09;5020206;28;20038;-79
2022/02/19 06:57:48;;;;;;;30.27;3.67;;;;;;;4.82;65.87;101013.75;5024895;28;20030;-79
2022/02/19 07:00:14;;;;;;;29.42;3.65;;;;;;;4.82;65.83;101011.09;5024291;28;20099;-80
2022/02/19 07:02:40;;;;;;;21.30;2.45;;;;;;;4.78;65.48;101021.19;5029159;28;20022;-79
2022/02/19 07:05:06;;;;;;;24.27;2.53;;;;;;;4.78;64.82;101031.84;5011047;28;20029;-78
2022/02/19 07:07:32;;;;;;;34.85;3.20;;;;;;;4.84;65.33;101017.09;5027618;28;20054;-78
2022/02/19 07:09:57;;;;;;;27.65;2.70;;;;;;;4.88;65.63;101025.69;5023995;28;20030;-78
2022/02/19 07:12:23;;;;;;;28.25;2.95;;;;;;;4.91;65.13;101026.25;5020964;28;20037;-79
2022/02/19 07:14:49;;;;;;;22.48;2.50;;;;;;;4.95;64.19;101048.13;5017135;28;20068;-79
2022/02/19 07:17:14;;;;;;;31.15;3.97;;;;;;;5.02;63.92;101049.25;5022173;28;20041;-79
2022/02/19 07:19:39;;;;;;;25.77;2.58;;;;;;;5.09;64.24;101047.72;5017856;28;20460;-80
2022/02/19 07:22:05;;;;;;;26.13;2.40;;;;;;;5.18;64.79;101044.19;5019606;28;20080;-79
2022/02/19 07:24:31;;;;;;;46.70;3.53;;;;;;;5.19;64.56;101066.41;5017739;28;20553;-81
2022/02/19 07:26:56;;;;;;;27.40;2.72;;;;;;;5.13;64.27;101051.78;5015174;28;20069;-80
2022/02/19 07:29:23;;;;;;;18.38;2.20;;;;;;;5.15;63.91;101048.97;5001026;28;20057;-80
2022/02/19 07:31:48;;;;;;;32.70;2.80;;;;;;;5.13;63.16;101040.25;5019951;28;20547;-80
2022/02/19 07:34:14;;;;;;;32.15;2.63;;;;;;;5.13;63.60;101051.78;5000137;28;20103;-79
2022/02/19 07:36:39;;;;;;;31.08;2.83;;;;;;;5.14;63.49;101044.63;5018427;28;20034;-80
2022/02/19 07:39:07;;;;;;;27.88;3.63;;;;;;;5.16;64.40;101050.66;5013397;28;20041;-80
2022/02/19 07:41:32;;;;;;;31.92;2.90;;;;;;;5.28;64.76;101057.53;5021671;28;20068;-80
2022/02/19 07:43:58;;;;;;;32.75;3.28;;;;;;;5.31;64.59;101065.25;5018408;28;20029;-80
2022/02/19 07:46:23;;;;;;;20.00;2.88;;;;;;;5.44;63.60;101068.47;5021323;28;20053;-80
2022/02/19 07:48:51;;;;;;;30.52;3.13;;;;;;;5.39;63.02;101049.34;5017853;28;20010;-83
2022/02/19 07:59:28;;;;;;;30.05;2.60;;;;;;;6.08;62.48;101074.94;5026099;28;20073;-80
2022/02/19 08:01:53;;;;;;;20.20;2.95;;;;;;;6.18;61.39;101088.22;5015858;28;20053;-80
2022/02/19 08:04:19;;;;;;;33.25;2.45;;;;;;;6.20;61.64;101088.94;5019331;28;20041;-79
2022/02/19 08:06:45;;;;;;;13.00;2.33;;;;;;;6.66;61.12;101094.31;5022560;28;20057;-79
2022/02/19 08:09:12;;;;;;;21.13;2.10;;;;;;;7.14;59.98;101096.66;5012872;28;20136;-81
2022/02/19 08:11:38;;;;;;;23.27;3.50;;;;;;;7.36;58.68;101107.88;5013112;28;20040;-81
2022/02/19 08:14:03;;;;;;;16.85;2.42;;;;;;;8.09;57.14;101094.16;5022819;28;20029;-82
2022/02/19 08:16:29;;;;;;;26.42;4.30;;;;;;;8.96;54.14;101102.88;5022939;28;20049;-81
2022/02/19 08:18:54;;;;;;;28.35;3.08;;;;;;;8.98;53.65;101106.25;5017070;28;20034;-80
2022/02/19 08:21:23;;;;;;;22.88;2.50;;;;;;;9.00;53.48;101115.81;5025288;28;20508;-83
2022/02/19 08:23:48;;;;;;;24.60;3.17;;;;;;;9.07;52.28;101109.78;5025316;28;20025;-81
2022/02/19 08:26:13;;;;;;;19.85;3.22;;;;;;;9.36;51.34;101126.25;5015742;28;20093;-81
2022/02/19 08:28:39;;;;;;;21.17;2.33;;;;;;;9.63;51.59;101129.63;5021528;28;20073;-80
2022/02/19 08:31:05;;;;;;;33.88;3.10;;;;;;;9.79;50.92;101116.16;5010427;28;20041;-80
2022/02/19 08:33:30;;;;;;;29.10;3.60;;;;;;;9.82;51.43;101125.72;5010626;28;20033;-80
2022/02/19 08:35:56;;;;;;;22.13;3.13;;;;;;;10.08;50.41;101137.13;5022519;28;20022;-80
2022/02/19 08:38:21;;;;;;;24.10;3.20;;;;;;;10.06;50.41;101138.31;5024045;28;20472;-80
2022/02/19 08:40:46;;;;;;;35.30;3.33;;;;;;;10.07;49.73;101146.19;5010935;28;20130;-79
2022/02/19 08:43:12;;;;;;;28.60;2.88;;;;;;;10.48;49.88;101126.44;5011133;28;20069;-79
2022/02/19 08:45:39;;;;;;;27.63;2.70;;;;;;;10.52;49.21;101123.22;5009746;28;20561;-78
2022/02/19 08:48:05;;;;;;;32.17;3.15;;;;;;;10.32;49.65;101149.72;5009907;28;20033;-78
2022/02/19 08:50:39;;;;;;;22.33;2.38;;;;;;;9.80;50.13;101157.34;5011407;28;20088;-81
2022/02/19 08:53:04;;;;;;;17.95;2.60;;;;;;;9.55;50.77;101151.13;5011266;28;20489;-81
2022/02/19 08:55:30;;;;;;;23.55;2.22;;;;;;;9.63;50.13;101164.53;5011755;28;20037;-81
2022/02/19 08:57:56;;;;;;;27.38;3.00;;;;;;;10.02;50.11;101161.16;5021467;28;20037;-81
2022/02/19 09:00:21;;;;;;;24.05;2.88;;;;;;;10.14;50.08;101164.31;5022109;28;20026;-81
2022/02/19 09:02:47;;;;;;;19.92;2.10;;;;;;;10.54;49.05;101168.81;5004449;28;20011;-81
2022/02/19 09:05:14;;;;;;;22.15;3.20;;;;;;;10.10;49.39;101155.78;5020276;28;20117;-81
2022/02/19 09:07:40;;;;;;;26.73;2.58;;;;;;;10.46;49.13;101174.22;5024893;28;20054;-79
2022/02/19 09:10:06;;;;;;;17.60;2.78;;;;;;;9.82;48.96;101177.66;5023929;28;20073;-81
2022/02/19 09:12:33;;;;;;;16.15;2.17;;;;;;;9.96;49.71;101175.31;5024223;28;20030;-80
2022/02/19 09:14:58;;;;;;;26.38;2.60;;;;;;;10.65;47.52;101178.34;5020462;28;20042;-81
2022/02/19 09:17:24;;;;;;;15.13;2.28;;;;;;;10.24;48.70;101178.44;5023387;28;20030;-80
2022/02/19 09:19:49;;;;;;;29.20;3.45;;;;;;;9.79;50.13;101185.22;5015645;28;20068;-82
2022/02/19 09:22:15;;;;;;;23.73;3.05;;;;;;;9.43;51.52;101178.31;4999680;28;20450;-81
2022/02/19 09:24:40;;;;;;;19.08;2.90;;;;;;;9.12;52.46;101193.38;5007678;28;20076;-80
2022/02/19 09:27:05;;;;;;;18.80;2.53;;;;;;;8.82;54.02;101192.06;5018593;28;20022;-82
2022/02/19 09:29:32;;;;;;;28.38;3.05;;;;;;;9.16;54.08;101192.03;5023197;28;20048;-81
2022/02/19 09:31:58;;;;;;;26.58;2.80;;;;;;;8.62;54.73;101192.34;5019898;28;20108;-82
2022/02/19 09:34:23;;;;;;;26.70;3.13;;;;;;;8.96;55.29;101199.53;5020700;28;20390;-82
2022/02/19 09:36:52;;;;;;;27.58;3.03;;;;;;;8.72;56.86;101197.59;5018864;28;20445;-80
2022/02/19 09:39:18;;;;;;;27.05;3.15;;;;;;;9.10;56.50;101195.38;5020133;28;20064;-80
2022/02/19 09:41:45;;;;;;;32.83;3.30;;;;;;;9.29;55.50;101213.88;5020131;28;20034;-82
2022/02/19 09:44:10;;;;;;;23.00;2.88;;;;;;;9.25;55.96;101192.91;5017763;28;20029;-82
2022/02/19 09:46:36;;;;;;;30.92;3.13;;;;;;;9.65;55.35;101194.78;5017387;28;20030;-82
2022/02/19 09:49:04;;;;;;;27.38;3.53;;;;;;;10.02;54.18;101204.19;5008975;28;20050;-81
2022/02/19 09:51:30;;;;;;;34.28;3.63;;;;;;;9.87;54.54;101202.19;4997641;28;20304;-81
2022/02/19 09:53:55;;;;;;;21.67;3.15;;;;;;;10.30;53.56;101189.38;5019866;28;20033;-81
2022/02/19 09:56:24;;;;;;;27.63;3.05;;;;;;;9.71;53.78;101199.47;5020038;28;20074;-81
2022/02/19 09:58:50;;;;;;;20.30;2.75;;;;;;;9.22;55.41;101205.66;5023505;28;20036;-80
2022/02/19 10:01:19;;;;;;;25.30;3.63;;;;;;;9.65;55.32;101201.00;5019127;28;20464;-82
2022/02/19 10:03:45;;;;;;;33.20;3.58;;;;;;;9.42;54.50;101208.84;5016395;28;20040;-83
2022/02/19 10:06:12;;;;;;;30.45;3.22;;;;;;;9.58;54.50;101216.09;5001284;28;20042;-82
2022/02/19 10:08:38;;;;;;;30.27;2.67;;;;;;;9.77;53.67;101219.47;5011919;28;20136;-83
2022/02/19 10:11:03;;;;;;;24.50;3.38;;;;;;;9.65;53.76;101206.38;5000959;28;20034;-83
2022/02/19 10:13:35;;;;;;;22.92;2.83;;;;;;;9.20;55.21;101221.06;5000904;28;20101;-83
2022/02/19 10:16:03;;;;;;;25.27;3.03;;;;;;;9.02;55.76;101226.56;4999482;28;20029;-82
2022/02/19 10:18:30;;;;;;;33.60;3.30;;;;;;;8.55;57.25;101221.63;5013049;28;20026;-83
2022/02/19 10:21:13;;;;;;;24.42;2.85;;;;;;;8.48;57.98;101217.94;5012330;28;20072;-83
2022/02/19 10:23:39;;;;;;;45.13;3.67;;;;;;;8.28;57.95;101243.25;5015752;28;20041;-81
2022/02/19 10:26:05;;;;;;;32.03;3.13;;;;;;;8.53;58.75;101236.22;5015552;28;20022;-82
2022/02/19 10:28:31;;;;;;;29.20;2.92;;;;;;;9.14;57.87;101220.91;5012503;28;20018;-82
2022/02/19 10:30:56;;;;;;;50.63;3.75;;;;;;;9.41;56.65;101220.63;5015261;28;20041;-83
2022/02/19 10:33:26;;;;;;;44.13;3.60;;;;;;;9.33;56.68;101217.91;5016574;28;20026;-83
2022/02/19 10:35:52;;;;;;;37.85;3.10;;;;;;;9.25;56.43;101217.91;5014373;28;20033;-83
2022/02/19 10:38:19;;;;;;;26.08;3.55;;;;;;;8.97;56.35;101218.13;5012773;28;20030;-80
2022/02/19 10:40:52;;;;;;;32.00;3.83;;;;;;;8.65;56.86;101221.53;5015486;28;20036;-80
2022/02/19 10:43:31;;;;;;;33.85;2.65;;;;;;;8.27;58.55;101228.16;5002192;28;20030;-81
2022/02/19 10:46:01;;;;;;;27.88;2.90;;;;;;;8.02;58.81;101233.34;4997432;28;20027;-82
2022/02/19 10:48:28;;;;;;;33.90;3.00;;;;;;;7.89;59.38;101239.09;5005543;28;20496;-82
2022/02/19 10:51:08;;;;;;;27.20;2.92;;;;;;;7.77;59.68;101245.69;4996665;28;20030;-83
2022/02/19 10:53:36;;;;;;;22.55;2.92;;;;;;;7.65;60.59;101236.19;5005000;28;20068;-83
2022/02/19 10:56:09;;;;;;;31.50;2.50;;;;;;;7.76;60.62;101230.59;5015410;28;20038;-83
2022/02/19 10:58:34;;;;;;;30.85;3.47;;;;;;;7.68;60.31;101226.00;5015041;28;20032;-83
2022/02/19 11:00:59;;;;;;;38.28;2.95;;;;;;;7.79;60.09;101232.13;5016337;28;20042;-84
2022/02/19 11:03:25;;;;;;;29.00;3.30;;;;;;;7.77;60.51;101239.50;5023263;28;20105;-84
2022/02/19 19:35:39;;;;;;;12.87;3.07;;;;;;;4.87;99.89;100242.69;6091105;23;1222816;-82
2022/02/19 19:38:05;;;;;;;24.90;3.88;;;;;;;4.97;99.97;100249.56;6018354;23;20018;-79
2022/02/19 19:40:32;;;;;;;36.05;4.43;;;;;;;5.06;99.89;100237.94;6068152;23;20078;-79
2022/02/19 19:42:57;;;;;;;22.92;3.03;;;;;;;5.12;100.00;100251.66;6066001;23;20010;-78
2022/02/19 19:45:23;;;;;;;29.65;4.05;;;;;;;5.21;100.00;100264.00;6063493;23;20006;-76
2022/02/19 19:47:48;;;;;;;30.55;4.43;;;;;;;5.31;100.00;100270.03;6064385;23;20003;-77
2022/02/19 19:50:13;;;;;;;34.15;4.97;;;;;;;5.43;100.00;100255.41;6063927;23;20451;-77
2022/02/19 19:52:39;;;;;;;58.05;6.25;;;;;;;5.64;100.00;100270.16;6065627;23;20436;-78
2022/02/19 19:55:05;;;;;;;43.65;4.47;;;;;;;5.70;100.00;100272.16;6069124;23;20010;-77
2022/02/19 19:57:31;;;;;;;38.78;3.60;;;;;;;5.77;100.00;100275.00;6042332;23;20412;-77